Latest Weather Observations for Terrey Hills

IDN60801

Issued at 4:03 pm EST Tuesday 21 April 2015 (issued every 30 minutes, with the page automatically refreshed every 10 minutes)

About weather observations | Map of weather stations | Latest weather observations for NSW | Other Formats
Station Details ID: 066059 Name: TERREY HILLS AWS Lat: -33.69 Lon: 151.23 Height: 199.0 m
Data from the previous 72 hours. | See also: Recent months at Terrey Hills
Date/Time
EST
Temp
°C
App
Temp
°C
Dew
Point
Rel
Hum
%
Delta-T
°C
Wind Press
QNH
hPa
Press
MSL
hPa
Rain
since 9 am
mm
Dir
 
Spd
km/h
Gust
km/h
Spd
kts
Gust
kts
21/04:00pm 12.4 6.9 12.4 100 0.0 S 33 61 18 33 - - 28.8
21/03:30pm 12.5 7.2 12.5 100 0.0 S 32 57 17 31 - - 26.2
21/03:01pm 13.0 8.6 13.0 100 0.0 S 28 59 15 32 - - 24.2
21/03:00pm 12.9 8.9 12.9 100 0.0 S 26 59 14 32 - - 24.0
21/02:39pm 12.9 8.5 12.9 100 0.0 S 28 57 15 31 - - 19.4
21/02:30pm 13.1 9.9 13.1 100 0.0 S 22 44 12 24 - - 16.4
21/02:00pm 13.2 8.9 13.2 100 0.0 S 28 63 15 34 - - 11.8
21/01:30pm 13.2 8.1 13.2 100 0.0 S 32 54 17 29 - - 10.0
21/01:00pm 13.3 8.3 13.3 100 0.0 S 32 59 17 32 - - 7.4
21/12:30pm 13.3 8.0 13.1 99 0.1 SSE 33 59 18 32 - - 5.2
21/12:00pm 13.5 8.4 13.0 97 0.3 S 32 63 17 34 - - 4.2
21/11:30am 13.5 8.1 12.7 95 0.4 SSE 33 65 18 35 - - 3.6
21/11:00am 13.8 8.0 10.8 82 1.6 SSE 32 63 17 34 - - 3.4
21/10:30am 13.1 7.7 12.8 98 0.2 SSE 33 69 18 37 - - 3.0
21/10:00am 12.6 6.2 10.7 88 1.0 SSE 35 65 19 35 - - 1.2
21/09:30am 13.8 8.9 12.7 93 0.6 SSE 30 61 16 33 - - 0.2
21/09:00am 13.7 8.9 12.9 95 0.4 S 30 69 16 37 - - 114.6
21/08:30am 13.3 8.1 12.8 97 0.3 SSE 32 57 17 31 - - 114.2
21/08:00am 13.2 7.0 12.7 97 0.3 SSE 37 67 20 36 - - 113.0
21/07:30am 13.3 7.2 13.0 98 0.2 S 37 59 20 32 - - 111.6
21/07:00am 13.5 9.1 13.0 97 0.3 S 28 54 15 29 - - 111.0
21/06:30am 13.2 8.8 12.9 98 0.2 SSE 28 48 15 26 - - 109.8
21/06:00am 13.2 8.4 13.0 99 0.1 S 30 61 16 33 - - 109.4
21/05:30am 13.7 9.1 13.5 99 0.1 S 30 59 16 32 - - 107.8
21/05:00am 13.3 8.5 13.0 98 0.2 S 30 69 16 37 - - 106.6
21/04:33am 13.5 8.5 13.5 100 0.0 SSE 32 76 17 41 - - 105.6
21/04:30am 13.4 8.8 13.4 100 0.0 SSE 30 56 16 30 - - 105.4
21/04:00am 13.5 8.3 13.5 100 0.0 SSE 33 63 18 34 - - 101.6
21/03:30am 13.6 9.4 13.6 100 0.0 S 28 54 15 29 - - 99.4
21/03:00am 13.7 9.2 13.7 100 0.0 SSE 30 61 16 33 - - 97.2
21/02:30am 13.7 9.2 13.7 100 0.0 SSE 30 59 16 32 - - 94.8
21/02:00am 13.6 8.7 13.6 100 0.0 SSE 32 63 17 34 - - 92.2
21/01:30am 14.1 9.1 14.1 100 0.0 SSE 33 74 18 40 - - 90.0
21/01:00am 14.3 9.6 14.3 100 0.0 SSE 32 67 17 36 - - 87.2
21/12:30am 14.4 10.5 14.4 100 0.0 SSE 28 61 15 33 - - 85.2
21/12:00am 14.2 9.5 14.2 100 0.0 SSE 32 61 17 33 - - 83.2
 
Date/Time
EST
Temp
°C
App
Temp
°C
Dew
Point
Rel
Hum
%
Delta-T
°C
Wind Press
QNH
hPa
Press
MSL
hPa
Rain
since 9 am
mm
Dir
 
Spd
km/h
Gust
km/h
Spd
kts
Gust
kts
20/11:34pm 13.9 9.8 13.9 100 0.0 S 28 59 15 32 - - 80.6
20/11:30pm 14.1 10.8 14.1 100 0.0 S 24 48 13 26 - - 80.4
20/11:00pm 14.0 10.7 14.0 100 0.0 SSE 24 43 13 23 - - 75.6
20/10:30pm 14.2 9.8 14.2 100 0.0 SE 30 61 16 33 - - 69.6
20/10:00pm 14.3 10.0 14.3 100 0.0 SSE 30 56 16 30 - - 64.2
20/09:30pm 14.5 10.6 14.5 100 0.0 SSE 28 56 15 30 - - 61.4
20/09:00pm 14.6 10.0 14.6 100 0.0 SSE 32 67 17 36 - - 58.8
20/08:30pm 14.9 10.8 14.9 100 0.0 SSE 30 59 16 32 - - 54.8
20/08:12pm 14.8 11.0 14.8 100 0.0 SSE 28 63 15 34 - - 53.0
20/08:00pm 15.0 11.7 15.0 100 0.0 S 26 44 14 24 - - 52.0
20/07:31pm 15.1 11.4 15.1 100 0.0 SSE 28 50 15 27 - - 49.6
20/07:30pm 15.1 11.8 15.1 100 0.0 SSE 26 50 14 27 - - 49.4
20/07:02pm 15.3 11.7 15.3 100 0.0 SE 28 61 15 33 - - 46.0
20/07:00pm 15.3 12.1 15.3 100 0.0 SE 26 61 14 33 - - 45.8
20/06:34pm 15.4 11.9 15.4 100 0.0 SSE 28 63 15 34 - - 42.8
20/06:30pm 15.4 12.2 15.4 100 0.0 SE 26 63 14 34 - - 42.8
20/06:00pm 15.4 11.5 15.4 100 0.0 SE 30 59 16 32 - - 37.4
20/05:30pm 15.4 11.1 15.4 100 0.0 SE 32 72 17 39 - - 34.8
20/05:00pm 15.2 11.6 15.2 100 0.0 SE 28 56 15 30 - - 30.0
20/04:31pm 15.0 11.3 15.0 100 0.0 SE 28 54 15 29 - - 26.0
20/04:30pm 15.2 12.0 15.2 100 0.0 SE 26 54 14 29 - - 25.8
20/04:00pm 15.3 11.7 15.3 100 0.0 SE 28 52 15 28 - - 22.6
20/03:58pm 15.3 11.7 15.3 100 0.0 SE 28 52 15 28 - - 22.6
20/03:30pm 15.3 12.9 15.3 100 0.0 SSE 22 44 12 24 - - 22.0
20/03:00pm 15.2 12.3 15.2 100 0.0 SSE 24 48 13 26 - - 22.0
20/02:30pm 15.2 11.6 15.2 100 0.0 SSE 28 48 15 26 - - 20.4
20/02:22pm 15.2 11.6 15.2 100 0.0 SSE 28 50 15 27 - - 20.4
20/02:00pm 15.3 13.8 15.3 100 0.0 SSE 17 32 9 17 - - 19.8
20/01:30pm 14.8 12.2 14.8 100 0.0 S 22 46 12 25 - - 19.2
20/01:00pm 14.7 12.0 14.7 100 0.0 SSE 22 50 12 27 - - 18.0
20/12:30pm 15.0 13.0 15.0 100 0.0 S 19 35 10 19 - - 12.6
20/12:00pm 14.8 12.7 14.8 100 0.0 S 19 43 10 23 - - 11.0
20/11:30am 14.9 12.9 14.9 100 0.0 SSE 19 37 10 20 - - 9.0
20/11:00am 14.5 13.1 14.5 100 0.0 SSE 15 30 8 16 - - 8.8
20/10:30am 14.6 13.6 14.6 100 0.0 SSW 13 28 7 15 - - 6.2
20/10:00am 13.9 11.9 13.9 100 0.0 SSW 17 43 9 23 - - 5.2
20/09:30am 13.7 12.0 13.7 100 0.0 SSW 15 30 8 16 - - 1.6
20/09:00am 13.6 12.7 13.6 100 0.0 SSW 11 26 6 14 - - 12.4
20/08:30am 12.6 9.6 12.6 100 0.0 SSW 20 33 11 18 - - 12.0
20/08:00am 12.1 9.9 12.1 100 0.0 SSW 15 30 8 16 - - 11.2
20/07:30am 11.4 9.8 11.4 100 0.0 SW 11 20 6 11 - - 6.4
20/07:00am 11.1 7.9 11.1 100 0.0 SW 19 30 10 16 - - 5.8
20/06:30am 11.2 8.4 11.2 100 0.0 SW 17 28 9 15 - - 2.6
20/06:00am 11.1 8.2 10.9 99 0.1 WSW 17 30 9 16 - - 2.0
20/05:30am 11.2 7.9 11.0 99 0.1 SW 19 28 10 15 - - 1.6
20/05:00am 11.6 9.2 11.4 99 0.1 SW 15 28 8 15 - - 0.8
20/04:30am 11.7 8.9 11.2 97 0.3 SW 17 26 9 14 - - 0.4
20/04:00am 11.9 8.7 11.1 95 0.4 SW 19 33 10 18 - - 0.2
20/03:30am 12.0 8.7 10.9 93 0.6 SW 19 30 10 16 - - 0.2
20/03:00am 11.9 8.4 11.0 94 0.5 SW 20 39 11 21 - - 0.2
20/02:30am 12.0 8.8 11.2 95 0.4 SW 19 30 10 16 - - 0.2
20/02:00am 11.8 8.7 11.5 98 0.2 SW 19 32 10 17 - - 0.2
20/01:30am 11.5 8.7 11.3 99 0.1 SW 17 32 9 17 - - 0.2
20/01:00am 11.4 8.5 11.1 98 0.2 SW 17 32 9 17 - - 0.2
20/12:30am 11.7 9.6 11.1 96 0.3 SW 13 22 7 12 - - 0.2
20/12:00am 11.9 9.0 11.1 95 0.4 SW 17 28 9 15 - - 0.2
 
Date/Time
EST
Temp
°C
App
Temp
°C
Dew
Point
Rel
Hum
%
Delta-T
°C
Wind Press
QNH
hPa
Press
MSL
hPa
Rain
since 9 am
mm
Dir
 
Spd
km/h
Gust
km/h
Spd
kts
Gust
kts
19/11:30pm 11.6 9.5 11.0 96 0.3 SW 13 24 7 13 - - 0.2
19/11:00pm 11.7 8.8 10.9 95 0.4 SW 17 28 9 15 - - 0.2
19/10:30pm 11.6 8.6 10.8 95 0.4 SW 17 28 9 15 - - 0.2
19/10:00pm 12.4 9.5 11.1 92 0.7 SW 17 28 9 15 - - 0.0
19/09:30pm 13.3 10.6 10.3 82 1.6 SW 15 28 8 15 - - 0.0
19/09:00pm 13.4 10.0 10.6 83 1.5 SSW 19 32 10 17 - - 0.0
19/08:30pm 13.5 10.1 10.7 83 1.5 SSW 19 28 10 15 - - 0.0
19/08:00pm 13.8 10.6 11.1 84 1.4 SSW 19 28 10 15 - - 0.0
19/07:30pm 14.0 11.2 11.3 84 1.4 S 17 30 9 16 - - 0.0
19/07:00pm 14.2 11.0 11.4 83 1.5 S 19 35 10 19 - - 0.0
19/06:30pm 15.3 12.3 12.1 81 1.8 S 19 35 10 19 - - 0.0
19/06:00pm 15.4 12.5 12.2 81 1.8 S 19 41 10 22 - - 0.0
19/05:30pm 15.9 13.3 11.9 77 2.2 S 17 33 9 18 - - 0.0
19/05:00pm 16.0 14.5 13.1 83 1.6 S 13 28 7 15 - - 0.0
19/04:30pm 15.7 13.2 13.5 87 1.2 S 19 35 10 19 - - 0.0
19/04:00pm 16.1 14.0 13.6 85 1.4 S 17 35 9 19 - - 0.0
19/03:30pm 16.7 15.2 14.2 85 1.4 S 15 26 8 14 - - 0.0
19/03:00pm 16.9 15.4 14.2 84 1.6 SSE 15 30 8 16 - - 0.0
19/02:30pm 18.5 17.6 14.8 79 2.2 S 13 24 7 13 - - 0.0
19/02:00pm 17.6 16.5 14.3 81 1.9 SSE 13 26 7 14 - - 0.0
19/01:30pm 18.5 17.2 14.8 79 2.2 SSE 15 28 8 15 - - 0.0
19/01:00pm 18.8 17.8 14.7 77 2.4 SSE 13 32 7 17 - - 0.0
19/12:30pm 20.1 19.7 14.0 68 3.6 S 9 26 5 14 - - 0.0
19/12:00pm 20.7 19.3 13.4 63 4.2 SW 13 20 7 11 - - 0.0
19/11:30am 20.4 19.1 13.6 65 3.9 SW 13 20 7 11 - - 0.0
19/11:00am 20.2 19.0 14.1 68 3.6 SW 13 24 7 13 - - 0.0
19/10:30am 19.2 18.4 12.9 67 3.6 WSW 9 15 5 8 - - 0.0
19/10:00am 18.3 16.9 12.3 68 3.4 WSW 11 22 6 12 - - 0.0
19/09:30am 18.1 16.4 12.3 69 3.2 WSW 13 26 7 14 - - 0.0
19/09:00am 17.6 15.6 12.7 73 2.8 WSW 15 26 8 14 - - 2.0
19/08:30am 17.8 16.9 14.9 83 1.7 WSW 13 20 7 11 - - 2.0
19/08:00am 17.4 17.7 16.1 92 0.8 W 9 13 5 7 - - 2.0
19/07:30am 16.8 17.6 16.3 97 0.3 W 7 11 4 6 - - 2.0
19/07:00am 16.3 17.0 16.1 99 0.1 WNW 7 11 4 6 - - 2.0
19/06:30am 15.9 16.6 15.7 99 0.1 WNW 6 9 3 5 - - 2.0
19/06:00am 16.2 16.8 15.9 98 0.2 WNW 7 9 4 5 - - 2.0
19/05:30am 16.5 17.7 16.0 97 0.3 WNW 4 6 2 3 - - 2.0
19/05:00am 16.9 18.3 16.3 96 0.4 NW 4 7 2 4 - - 2.0
19/04:30am 17.2 17.7 16.6 96 0.4 NW 9 17 5 9 - - 2.0
19/04:00am 17.2 17.8 16.7 97 0.3 NW 9 15 5 8 - - 2.0
19/03:30am 17.3 17.9 16.8 97 0.3 NNW 9 17 5 9 - - 2.0
19/03:00am 17.3 18.0 17.0 98 0.2 NNW 9 17 5 9 - - 2.0
19/02:30am 17.2 17.5 17.0 99 0.1 NNW 11 20 6 11 - - 2.0
19/02:00am 17.3 18.0 17.0 98 0.2 NNW 9 17 5 9 - - 2.0
19/01:30am 17.4 18.6 16.9 97 0.3 NW 6 9 3 5 - - 1.8
19/01:00am 17.6 17.9 17.0 96 0.4 NNW 11 17 6 9 - - 1.6
19/12:30am 17.7 18.4 17.1 96 0.4 NNW 9 17 5 9 - - 1.6
19/12:00am 18.0 18.7 17.0 94 0.6 NNW 9 19 5 10 - - 1.4
 
Date/Time
EST
Temp
°C
App
Temp
°C
Dew
Point
Rel
Hum
%
Delta-T
°C
Wind Press
QNH
hPa
Press
MSL
hPa
Rain
since 9 am
mm
Dir
 
Spd
km/h
Gust
km/h
Spd
kts
Gust
kts
18/11:30pm 18.2 18.8 16.7 91 0.9 NNW 9 17 5 9 - - 1.0
18/11:00pm 18.9 19.0 16.5 86 1.5 NNW 11 22 6 12 - - 0.6
18/10:30pm 18.4 18.9 16.6 89 1.1 NW 9 17 5 9 - - 0.6
18/10:00pm 20.1 19.4 15.5 75 2.7 WNW 13 20 7 11 - - 0.2
18/09:30pm 22.0 22.0 16.3 70 3.5 NNW 11 19 6 10 - - 0.2
18/09:00pm 21.8 21.9 16.5 72 3.2 NNW 11 19 6 10 - - 0.2
18/08:30pm 21.5 22.2 17.1 76 2.7 NNW 9 15 5 8 - - 0.2
18/08:00pm 21.5 22.4 17.5 78 2.5 N 9 15 5 8 - - 0.2
18/07:30pm 21.5 21.7 17.7 79 2.4 N 13 19 7 10 - - 0.2
18/07:00pm 21.4 22.4 17.8 80 2.2 N 9 19 5 10 - - 0.2
18/06:30pm 21.5 22.0 17.5 78 2.5 N 11 19 6 10 - - 0.2
18/06:00pm 21.6 22.6 16.8 74 2.9 N 7 11 4 6 - - 0.2
18/05:30pm 21.8 22.4 16.7 73 3.1 N 9 15 5 8 - - 0.2
18/05:00pm 22.1 22.7 16.8 72 3.3 N 9 15 5 8 - - 0.2
18/04:30pm 22.6 23.1 16.6 69 3.7 N 9 15 5 8 - - 0.2

Other Formats:

Comma delimited format used in spreadsheet applications
http://www.bom.gov.au/fwo/IDN60801/IDN60801.94759.axf

JavaScript Object Notation format (JSON) in row-major order
http://www.bom.gov.au/fwo/IDN60801/IDN60801.94759.json